Time;durP1;ratioP1;P1;durP2;ratioP2;P2;SDS_P1;SDS_P2;PMS_P1;PMS_P2;Temp;Humidity;BMP_temperature;BMP_pressure;BME280_temperature;BME280_humidity;BME280_pressure;Samples;Min_cycle;Max_cycle;Signal;HPM_P1;HPM_P2
2022/03/11 00:04:31;;;;;;;23.67;10.73;;;-0.40;75.20;;;;;;10399674;28;20271;-84
2022/03/11 00:09:53;;;;;;;21.30;10.97;;;-0.40;75.00;;;;;;10398989;28;20197;-86
2022/03/11 00:15:15;;;;;;;26.33;10.77;;;-0.50;75.30;;;;;;10424794;28;20223;-86
2022/03/11 00:20:38;;;;;;;22.50;10.47;;;-0.60;76.90;;;;;;10447443;28;20377;-77
2022/03/11 00:26:25;;;;;;;23.87;10.63;;;-0.60;78.10;;;;;;10454586;28;20447;-88
2022/03/11 00:31:49;;;;;;;20.30;10.40;;;-0.60;80.10;;;;;;10430341;28;20217;-87
2022/03/11 00:37:11;;;;;;;20.83;9.67;;;-0.60;79.10;;;;;;10438461;28;20289;-78
2022/03/11 00:42:33;;;;;;;20.33;9.53;;;-0.70;81.10;;;;;;10437817;28;20441;-86
2022/03/11 00:47:58;;;;;;;19.27;9.57;;;-0.80;81.30;;;;;;10423907;28;20437;-87
2022/03/11 00:53:20;;;;;;;20.97;9.97;;;-0.80;82.10;;;;;;10423850;28;20285;-87
2022/03/11 00:58:44;;;;;;;21.47;9.43;;;-0.80;82.90;;;;;;10428074;28;20329;-79
2022/03/11 01:04:06;;;;;;;24.77;8.97;;;-0.80;84.20;;;;;;10396842;28;20271;-80
2022/03/11 01:09:29;;;;;;;19.67;8.60;;;-0.90;85.00;;;;;;10412852;28;20228;-88
2022/03/11 01:14:52;;;;;;;24.27;9.97;;;-0.90;85.10;;;;;;10433220;28;20197;-76
2022/03/11 01:20:14;;;;;;;22.87;10.03;;;-1.00;86.90;;;;;;10438237;28;20200;-77
2022/03/11 01:25:37;;;;;;;20.80;9.93;;;-1.00;87.90;;;;;;10437597;28;20225;-78
2022/03/11 01:30:59;;;;;;;22.33;10.27;;;-1.00;87.70;;;;;;10422421;28;20461;-77
2022/03/11 01:36:22;;;;;;;21.03;9.37;;;-1.20;90.50;;;;;;10437746;28;20384;-85
2022/03/11 01:41:44;;;;;;;17.53;8.70;;;-1.30;91.10;;;;;;10422822;28;20274;-81
2022/03/11 01:47:07;;;;;;;20.40;9.03;;;-1.30;91.30;;;;;;10422191;28;20200;-78
2022/03/11 01:52:29;;;;;;;22.70;10.07;;;-1.30;92.20;;;;;;10422693;28;20208;-88
2022/03/11 01:57:51;;;;;;;21.57;9.33;;;-1.40;92.40;;;;;;10433662;28;20201;-79
2022/03/11 02:03:13;;;;;;;19.93;8.37;;;-1.30;92.30;;;;;;10395578;28;20221;-84
2022/03/11 02:08:37;;;;;;;17.33;8.90;;;-1.50;93.00;;;;;;10398366;28;20228;-78
2022/03/11 02:14:00;;;;;;;17.80;8.37;;;-1.50;92.80;;;;;;10418536;28;20202;-76
2022/03/11 02:19:24;;;;;;;16.97;8.37;;;-1.50;93.30;;;;;;10442372;28;20192;-79
2022/03/11 02:24:46;;;;;;;15.90;8.13;;;-1.50;93.40;;;;;;10426057;28;20228;-80
2022/03/11 02:30:17;;;;;;;16.40;8.07;;;-1.60;94.20;;;;;;10443792;28;20426;-84
2022/03/11 02:35:40;;;;;;;18.47;8.43;;;-1.60;94.70;;;;;;10443577;28;20196;-83
2022/03/11 02:41:02;;;;;;;17.23;8.83;;;-1.70;95.00;;;;;;10443060;28;20236;-88
2022/03/11 02:46:25;;;;;;;18.20;7.57;;;-1.60;95.10;;;;;;10442895;28;20255;-82
2022/03/11 02:51:47;;;;;;;20.20;8.37;;;-1.60;95.30;;;;;;10443208;28;20207;-85
2022/03/11 02:57:10;;;;;;;16.87;7.97;;;-1.60;95.30;;;;;;10442848;28;20254;-86
2022/03/11 03:02:32;;;;;;;18.87;9.03;;;-1.70;95.30;;;;;;10441314;28;20394;-78
2022/03/11 03:07:54;;;;;;;18.33;8.20;;;-1.70;96.00;;;;;;10428471;28;20227;-87
2022/03/11 03:13:18;;;;;;;20.20;8.93;;;-1.80;95.90;;;;;;10428247;28;20196;-88
2022/03/11 03:18:40;;;;;;;22.83;9.03;;;-1.90;96.50;;;;;;10427842;28;20208;-81
2022/03/11 03:24:02;;;;;;;22.00;8.30;;;-2.00;97.30;;;;;;10442608;28;20224;-77
2022/03/11 03:29:26;;;;;;;17.37;8.57;;;-2.00;97.70;;;;;;10427969;28;20196;-87
2022/03/11 03:34:47;;;;;;;20.97;8.23;;;-2.00;97.50;;;;;;10440816;28;20199;-82
2022/03/11 03:40:10;;;;;;;16.77;8.67;;;-2.00;97.90;;;;;;10440707;28;20288;-79
2022/03/11 03:45:32;;;;;;;15.50;8.13;;;-2.10;98.10;;;;;;10440579;28;20239;-86
2022/03/11 03:50:54;;;;;;;16.10;8.43;;;-2.10;98.50;;;;;;10440830;28;20193;-78
2022/03/11 03:56:16;;;;;;;19.70;8.93;;;-2.10;98.80;;;;;;10440025;28;20196;-86
2022/03/11 04:01:40;;;;;;;19.77;9.20;;;-2.10;98.80;;;;;;10406518;28;20439;-78
2022/03/11 04:07:03;;;;;;;19.47;8.53;;;-2.20;98.90;;;;;;10414610;28;20239;-79
2022/03/11 04:12:26;;;;;;;15.27;8.23;;;-2.20;99.00;;;;;;10416132;28;20207;-81
2022/03/11 04:17:48;;;;;;;16.80;8.63;;;-2.20;99.50;;;;;;10399089;28;20506;-80
2022/03/11 04:23:10;;;;;;;16.87;8.40;;;-2.20;99.50;;;;;;10397803;28;20527;-89
2022/03/11 04:28:32;;;;;;;18.63;8.27;;;-2.30;99.90;;;;;;10401310;28;20220;-80
2022/03/11 04:33:55;;;;;;;17.47;8.07;;;-2.20;99.90;;;;;;10411874;28;20197;-86
2022/03/11 04:39:18;;;;;;;32.43;14.27;;;-2.30;99.90;;;;;;10384285;28;20198;-77
2022/03/11 04:44:40;;;;;;;109.93;46.37;;;-2.30;99.90;;;;;;10408608;28;20217;-77
2022/03/11 04:50:03;;;;;;;193.77;96.50;;;-2.30;99.90;;;;;;10408128;28;20196;-81
2022/03/11 04:55:25;;;;;;;48.00;27.07;;;-2.30;99.90;;;;;;10400648;28;20266;-82
2022/03/11 05:00:48;;;;;;;24.63;15.30;;;-2.40;99.90;;;;;;10432812;28;20245;-83
2022/03/11 05:06:12;;;;;;;22.07;12.57;;;-2.40;99.90;;;;;;10437949;28;20609;-78
2022/03/11 05:11:34;;;;;;;18.07;11.17;;;-2.40;99.90;;;;;;10438602;28;20200;-77
2022/03/11 05:16:55;;;;;;;22.07;12.60;;;-2.40;99.90;;;;;;10423625;28;20199;-80
2022/03/11 05:22:20;;;;;;;21.97;12.20;;;-2.40;99.60;;;;;;10436956;28;20219;-84
2022/03/11 05:27:43;;;;;;;24.47;11.20;;;-2.40;99.10;;;;;;10423569;28;20249;-80
2022/03/11 05:33:05;;;;;;;26.17;13.83;;;-2.40;98.80;;;;;;10437139;28;20195;-85
2022/03/11 05:38:29;;;;;;;25.83;13.37;;;-2.40;98.80;;;;;;10436855;28;20200;-79
2022/03/11 05:43:53;;;;;;;24.33;11.37;;;-2.30;98.60;;;;;;10437230;28;20522;-81
2022/03/11 05:49:15;;;;;;;25.43;14.33;;;-2.30;98.40;;;;;;10422800;28;20374;-79
2022/03/11 05:54:37;;;;;;;33.30;16.30;;;-2.30;98.70;;;;;;10436860;28;20223;-78
2022/03/11 06:00:04;;;;;;;53.67;23.07;;;-2.20;98.30;;;;;;10428878;28;20204;-77
2022/03/11 06:05:33;;;;;;;32.20;14.50;;;-2.10;98.00;;;;;;10431111;28;20273;-81
2022/03/11 06:10:56;;;;;;;24.90;13.60;;;-2.10;97.70;;;;;;10430986;28;20219;-87
2022/03/11 06:16:19;;;;;;;27.40;11.90;;;-2.10;98.80;;;;;;10430429;28;20200;-79
2022/03/11 06:21:41;;;;;;;30.47;12.53;;;-1.90;98.10;;;;;;10444875;28;20192;-80
2022/03/11 06:27:04;;;;;;;29.90;12.17;;;-1.80;97.30;;;;;;10430054;28;20200;-83
2022/03/11 06:32:26;;;;;;;37.40;14.00;;;-1.70;97.00;;;;;;10445931;28;20290;-85
2022/03/11 06:37:52;;;;;;;22.97;12.43;;;-1.60;97.00;;;;;;10443782;28;20193;-78
2022/03/11 06:43:14;;;;;;;22.47;10.67;;;-1.50;96.80;;;;;;10443498;28;20235;-81
2022/03/11 06:48:36;;;;;;;27.07;11.40;;;-1.30;95.90;;;;;;10443516;28;20196;-88
2022/03/11 06:53:58;;;;;;;24.27;11.07;;;-1.20;96.20;;;;;;10443478;28;20481;-77
2022/03/11 06:59:21;;;;;;;25.23;10.53;;;-0.60;93.00;;;;;;10441780;28;20205;-84
2022/03/11 07:04:43;;;;;;;21.37;9.30;;;1.20;65.90;;;;;;10442412;28;20227;-80
2022/03/11 07:10:11;;;;;;;16.43;8.83;;;3.30;49.30;;;;;;10426873;28;20205;-77
2022/03/11 07:15:34;;;;;;;14.17;8.40;;;4.90;36.00;;;;;;10442956;28;20225;-92
2022/03/11 07:20:56;;;;;;;14.97;8.53;;;5.50;29.40;;;;;;10433887;28;20271;-77
2022/03/11 07:26:22;;;;;;;14.17;7.60;;;6.40;28.00;;;;;;10454201;28;20215;-82
2022/03/11 07:31:45;;;;;;;12.02;7.43;;;6.90;25.10;;;;;;10434019;28;20247;-77
2022/03/11 07:37:12;;;;;;;16.85;10.02;;;7.70;23.00;;;;;;10444542;28;20399;-79
2022/03/11 07:42:35;;;;;;;13.70;7.88;;;8.60;21.80;;;;;;10442524;28;20294;-84
2022/03/11 07:47:57;;;;;;;14.02;7.68;;;9.20;19.40;;;;;;10444129;28;20374;-83
2022/03/11 07:53:20;;;;;;;8.48;5.40;;;9.50;18.80;;;;;;10443794;28;20208;-83
2022/03/11 07:58:44;;;;;;;15.07;7.00;;;8.60;18.20;;;;;;10437491;28;20222;-79
2022/03/11 08:04:07;;;;;;;10.65;6.40;;;9.60;17.30;;;;;;10442519;28;20225;-78
2022/03/11 08:09:30;;;;;;;23.25;10.05;;;10.70;16.10;;;;;;10422861;28;20249;-85
2022/03/11 08:14:52;;;;;;;9.88;6.15;;;9.90;15.00;;;;;;10447392;28;20202;-89
2022/03/11 08:20:15;;;;;;;11.73;7.25;;;10.70;14.60;;;;;;10397417;28;20199;-79
2022/03/11 08:25:39;;;;;;;9.55;5.18;;;10.80;14.20;;;;;;10399387;28;20222;-86
2022/03/11 08:31:01;;;;;;;12.90;6.40;;;11.50;13.00;;;;;;10421213;28;20476;-85
2022/03/11 08:36:23;;;;;;;16.10;8.23;;;12.40;12.70;;;;;;10433308;28;20270;-77
2022/03/11 08:41:48;;;;;;;13.77;8.02;;;12.20;12.20;;;;;;10432179;28;20258;-77
2022/03/11 08:47:11;;;;;;;13.15;7.75;;;12.70;11.60;;;;;;10403856;28;20213;-78
2022/03/11 08:52:36;;;;;;;9.23;5.72;;;13.20;10.90;;;;;;10391600;28;20208;-81
2022/03/11 08:58:00;;;;;;;13.65;8.00;;;12.00;10.60;;;;;;10414399;28;20208;-80
2022/03/11 09:03:22;;;;;;;11.52;6.53;;;12.20;10.50;;;;;;10395470;28;20209;-82
2022/03/11 09:08:45;;;;;;;14.13;9.48;;;12.40;10.60;;;;;;10438432;28;20203;-78
2022/03/11 09:14:09;;;;;;;12.10;7.93;;;12.30;10.00;;;;;;10443433;28;20553;-78
2022/03/11 09:19:34;;;;;;;16.13;9.70;;;12.40;10.00;;;;;;10436978;28;20242;-78
2022/03/11 09:24:57;;;;;;;16.77;10.82;;;12.80;10.10;;;;;;10424346;28;20584;-79
2022/03/11 09:30:21;;;;;;;14.48;7.47;;;12.10;10.50;;;;;;10434045;28;20765;-86
2022/03/11 09:35:44;;;;;;;9.30;6.88;;;11.50;11.20;;;;;;10441251;28;20462;-92
2022/03/11 09:41:08;;;;;;;9.07;5.72;;;11.50;11.40;;;;;;10441595;28;20244;-88
2022/03/11 09:46:33;;;;;;;9.40;6.55;;;11.80;11.20;;;;;;10418265;28;20303;-90
2022/03/11 09:51:58;;;;;;;8.25;5.57;;;12.80;10.30;;;;;;10421822;28;20204;-80
2022/03/11 09:57:26;;;;;;;12.63;5.20;;;13.50;9.60;;;;;;10433122;28;20200;-81
2022/03/11 10:02:52;;;;;;;8.50;5.25;;;13.20;9.50;;;;;;10392974;28;20520;-82
2022/03/11 10:08:15;;;;;;;8.23;5.20;;;13.10;10.30;;;;;;10419484;28;20203;-79
2022/03/11 10:13:40;;;;;;;14.38;8.05;;;13.80;9.60;;;;;;10431731;28;20242;-79
2022/03/11 10:19:08;;;;;;;11.25;5.85;;;14.70;9.00;;;;;;10421302;28;20192;-83
2022/03/11 10:24:30;;;;;;;8.15;5.82;;;14.10;8.70;;;;;;10431554;28;20256;-83
2022/03/11 10:30:01;;;;;;;12.32;6.18;;;13.80;8.90;;;;;;10435138;28;20460;-81
2022/03/11 10:35:31;;;;;;;14.70;5.28;;;15.10;9.30;;;;;;10406714;28;20204;-81
2022/03/11 10:40:56;;;;;;;15.38;5.60;;;15.20;8.10;;;;;;10384273;28;20237;-80
2022/03/11 10:46:24;;;;;;;11.82;4.68;;;14.90;8.00;;;;;;10406450;28;20263;-86
2022/03/11 10:51:47;;;;;;;9.07;5.03;;;14.70;8.90;;;;;;10418843;28;20560;-84
2022/03/11 10:57:10;;;;;;;19.10;5.15;;;14.60;8.20;;;;;;10446333;28;20247;-78
2022/03/11 11:02:33;;;;;;;13.70;5.03;;;15.00;8.30;;;;;;10440888;28;20436;-86
2022/03/11 11:07:59;;;;;;;9.52;4.07;;;15.10;7.30;;;;;;10420999;28;20216;-89
2022/03/11 11:13:22;;;;;;;5.63;4.18;;;15.40;7.10;;;;;;10442168;28;20523;-78
2022/03/11 11:18:48;;;;;;;11.23;4.07;;;15.50;6.30;;;;;;10446089;28;20314;-82
2022/03/11 11:24:17;;;;;;;7.40;3.60;;;15.20;6.80;;;;;;10445591;28;20302;-77
2022/03/11 11:29:42;;;;;;;7.72;3.75;;;15.60;6.20;;;;;;10447185;28;20246;-80
2022/03/11 11:35:26;;;;;;;6.15;3.90;;;15.90;6.10;;;;;;10446350;28;20189;-86
2022/03/11 11:40:48;;;;;;;8.30;3.13;;;16.00;5.90;;;;;;10445981;28;20266;-76
2022/03/11 11:46:14;;;;;;;5.88;3.40;;;15.70;5.60;;;;;;10445216;28;20227;-77
2022/03/11 11:51:36;;;;;;;8.30;4.45;;;16.10;5.50;;;;;;10445674;28;20203;-77
2022/03/11 11:57:01;;;;;;;8.02;3.15;;;17.20;5.30;;;;;;10442400;28;20431;-77
2022/03/11 12:02:33;;;;;;;4.90;3.22;;;16.70;4.50;;;;;;10431650;28;20221;-77
2022/03/11 12:07:56;;;;;;;4.38;2.78;;;16.10;4.60;;;;;;10450540;28;20227;-77
2022/03/11 12:13:32;;;;;;;17.25;5.28;;;15.90;4.70;;;;;;10437987;28;20195;-79
2022/03/11 12:18:55;;;;;;;7.22;4.07;;;15.50;4.70;;;;;;10397989;28;20205;-87
2022/03/11 12:24:33;;;;;;;10.32;4.80;;;15.70;5.20;;;;;;10394022;28;20226;-85
2022/03/11 12:30:07;;;;;;;7.22;4.63;;;15.10;4.80;;;;;;10427434;28;20208;-77
2022/03/11 12:35:30;;;;;;;6.85;3.35;;;15.40;4.70;;;;;;10436357;28;20203;-79
2022/03/11 12:40:54;;;;;;;4.60;3.75;;;15.20;4.40;;;;;;10448032;28;20275;-78
2022/03/11 12:46:18;;;;;;;7.65;2.95;;;15.10;4.50;;;;;;10447730;28;20325;-85
2022/03/11 12:51:41;;;;;;;5.15;2.88;;;15.00;4.90;;;;;;10432661;28;20267;-86
2022/03/11 12:57:04;;;;;;;4.97;2.85;;;14.90;4.60;;;;;;10449440;28;20265;-78
2022/03/11 13:02:26;;;;;;;7.28;3.50;;;15.00;4.30;;;;;;10392478;28;20216;-82
2022/03/11 13:07:50;;;;;;;4.47;2.47;;;14.40;4.30;;;;;;10428293;28;20246;-80
2022/03/11 13:13:13;;;;;;;4.43;2.85;;;14.00;4.70;;;;;;10431563;28;20256;-78
2022/03/11 13:18:40;;;;;;;12.48;4.20;;;13.70;5.30;;;;;;10432535;28;20199;-86
2022/03/11 13:24:07;;;;;;;9.98;3.70;;;13.10;5.30;;;;;;10432090;28;20305;-81
2022/03/11 13:29:29;;;;;;;9.98;3.70;;;13.90;5.40;;;;;;10433391;28;20186;-79
2022/03/11 13:34:51;;;;;;;6.95;4.30;;;14.30;4.80;;;;;;10433138;28;20267;-77
2022/03/11 13:40:14;;;;;;;7.10;3.95;;;13.60;5.10;;;;;;10439219;28;20244;-76
2022/03/11 13:45:36;;;;;;;7.03;3.40;;;13.60;5.40;;;;;;10432650;28;20293;-86
2022/03/11 13:51:10;;;;;;;8.25;3.22;;;13.70;5.60;;;;;;10430746;28;20269;-78
2022/03/11 13:56:40;;;;;;;6.80;3.22;;;13.20;6.10;;;;;;10436326;28;20204;-78
2022/03/11 14:02:18;;;;;;;14.43;4.85;;;13.30;6.00;;;;;;10406494;28;20290;-79
2022/03/11 14:07:43;;;;;;;6.53;3.60;;;13.40;6.00;;;;;;10395327;28;20414;-79
2022/03/11 14:13:07;;;;;;;8.37;6.00;;;13.20;6.00;;;;;;10396664;28;20200;-82
2022/03/11 14:18:29;;;;;;;7.90;4.00;;;13.00;6.30;;;;;;10433719;28;20210;-77
2022/03/11 14:23:54;;;;;;;17.00;4.83;;;12.00;6.60;;;;;;10441800;28;20276;-81
2022/03/11 14:29:20;;;;;;;7.80;3.53;;;10.70;7.30;;;;;;10435986;28;20318;-85
2022/03/11 14:34:42;;;;;;;7.87;3.50;;;9.70;8.30;;;;;;10440791;28;20418;-76
2022/03/11 14:40:06;;;;;;;6.07;3.40;;;9.10;8.20;;;;;;10443827;28;20469;-78
2022/03/11 14:45:28;;;;;;;14.57;4.10;;;8.50;9.00;;;;;;10440294;28;20340;-83
2022/03/11 14:50:50;;;;;;;10.20;4.17;;;8.30;9.40;;;;;;10423825;28;20269;-76
2022/03/11 14:56:12;;;;;;;14.97;5.97;;;8.10;9.50;;;;;;10424867;28;20203;-78
2022/03/11 15:01:37;;;;;;;17.77;5.50;;;7.90;9.90;;;;;;10447988;28;20235;-82
2022/03/11 15:07:00;;;;;;;16.07;6.40;;;7.80;10.20;;;;;;10439169;28;20235;-77
2022/03/11 15:12:26;;;;;;;12.30;5.90;;;7.80;10.40;;;;;;10435579;28;20508;-81
2022/03/11 15:17:49;;;;;;;19.60;7.73;;;7.90;10.40;;;;;;10437330;28;20212;-77
2022/03/11 15:23:11;;;;;;;18.77;8.03;;;7.70;10.80;;;;;;10436776;28;20277;-80
2022/03/11 15:28:33;;;;;;;20.23;6.50;;;7.60;11.30;;;;;;10437244;28;20228;-78
2022/03/11 15:33:55;;;;;;;14.00;6.43;;;7.40;11.10;;;;;;10436683;28;20485;-83
2022/03/11 15:39:18;;;;;;;12.43;6.07;;;7.20;11.80;;;;;;10437542;28;20216;-81
2022/03/11 15:44:40;;;;;;;23.90;8.70;;;6.80;11.80;;;;;;10435639;28;20460;-81
2022/03/11 15:50:03;;;;;;;34.10;13.03;;;6.80;12.20;;;;;;10436163;28;20451;-77
2022/03/11 15:55:26;;;;;;;25.00;8.97;;;6.80;12.60;;;;;;10422066;28;20207;-84
2022/03/11 16:00:47;;;;;;;32.10;14.47;;;6.70;12.70;;;;;;10436452;28;20274;-80
2022/03/11 16:06:11;;;;;;;16.10;7.03;;;6.50;12.80;;;;;;10444989;28;20288;-87
2022/03/11 16:11:33;;;;;;;30.47;15.83;;;6.30;13.20;;;;;;10438894;28;20277;-89
2022/03/11 16:16:56;;;;;;;26.20;11.30;;;6.10;13.60;;;;;;10423306;28;20226;-83
2022/03/11 16:22:18;;;;;;;29.83;10.97;;;6.00;14.20;;;;;;10438217;28;20202;-77
2022/03/11 16:27:41;;;;;;;43.10;15.80;;;5.70;14.00;;;;;;10438389;28;20225;-79
2022/03/11 16:33:09;;;;;;;45.27;16.30;;;5.50;14.40;;;;;;10425086;28;20434;-77
2022/03/11 16:38:32;;;;;;;28.80;13.10;;;5.40;14.90;;;;;;10439251;28;20213;-89
2022/03/11 16:43:55;;;;;;;66.33;19.50;;;5.40;15.50;;;;;;10443310;28;20230;-81
2022/03/11 16:49:18;;;;;;;30.67;13.17;;;5.30;16.60;;;;;;10448796;28;20194;-88
2022/03/11 16:54:40;;;;;;;20.63;10.17;;;5.10;18.20;;;;;;10443945;28;20193;-87
2022/03/11 17:00:07;;;;;;;22.13;10.20;;;5.00;19.60;;;;;;10436615;28;20434;-81
2022/03/11 17:05:31;;;;;;;26.07;11.70;;;4.70;20.30;;;;;;10439142;28;20235;-85
2022/03/11 17:10:54;;;;;;;31.83;12.47;;;4.50;20.80;;;;;;10440032;28;20244;-76
2022/03/11 17:16:17;;;;;;;24.97;12.53;;;4.30;21.20;;;;;;10407232;28;20224;-87
2022/03/11 17:21:40;;;;;;;28.27;12.77;;;4.20;21.70;;;;;;10397650;28;20189;-76
2022/03/11 17:27:02;;;;;;;36.10;14.70;;;4.10;22.30;;;;;;10424686;28;20299;-90
2022/03/11 17:32:25;;;;;;;35.50;14.50;;;4.00;22.80;;;;;;10438673;28;20513;-84
2022/03/11 17:37:49;;;;;;;45.73;17.87;;;3.90;23.10;;;;;;10438336;28;20204;-77
2022/03/11 17:43:11;;;;;;;43.20;20.00;;;3.80;23.60;;;;;;10438761;28;20228;-83
2022/03/11 17:48:34;;;;;;;40.37;18.43;;;3.60;24.10;;;;;;10422898;28;20541;-89
2022/03/11 17:53:58;;;;;;;33.40;16.20;;;3.60;24.40;;;;;;10437375;28;20545;-76
2022/03/11 17:59:21;;;;;;;30.00;15.83;;;3.50;24.60;;;;;;10423049;28;20200;-90
2022/03/11 18:04:43;;;;;;;42.00;17.20;;;3.40;25.10;;;;;;10396868;28;20232;-88
2022/03/11 18:10:07;;;;;;;31.00;15.23;;;3.30;25.20;;;;;;10396070;28;20310;-81
2022/03/11 18:15:29;;;;;;;33.83;15.07;;;3.30;25.40;;;;;;10422193;28;20271;-79
2022/03/11 18:20:53;;;;;;;43.30;15.70;;;3.20;25.60;;;;;;10437658;28;20220;-89
2022/03/11 18:26:16;;;;;;;34.53;15.63;;;3.10;26.10;;;;;;10422455;28;20247;-87
2022/03/11 18:31:38;;;;;;;36.70;17.30;;;3.10;26.40;;;;;;10435432;28;20196;-76
2022/03/11 18:37:01;;;;;;;44.57;21.00;;;3.00;27.00;;;;;;10451644;28;20220;-78
2022/03/11 18:42:24;;;;;;;52.63;27.33;;;3.00;27.00;;;;;;10436852;28;20251;-84
2022/03/11 18:47:47;;;;;;;45.37;23.53;;;2.90;27.20;;;;;;10436912;28;20237;-85
2022/03/11 18:53:12;;;;;;;30.50;16.93;;;2.90;27.60;;;;;;10437317;28;20196;-87
2022/03/11 18:58:35;;;;;;;38.20;20.97;;;2.70;28.00;;;;;;10409133;28;20295;-79
2022/03/11 19:03:57;;;;;;;41.30;20.37;;;2.70;28.60;;;;;;10435826;28;20570;-76
2022/03/11 19:09:21;;;;;;;113.07;45.83;;;2.60;29.30;;;;;;10443517;28;20237;-74
2022/03/11 19:14:44;;;;;;;161.93;63.33;;;2.50;28.60;;;;;;10442155;28;20215;-90
2022/03/11 19:20:09;;;;;;;118.57;51.80;;;2.50;29.20;;;;;;10428754;28;20204;-84
2022/03/11 19:25:31;;;;;;;108.40;48.90;;;2.40;29.30;;;;;;10442809;28;20294;-75
2022/03/11 19:30:55;;;;;;;76.40;34.17;;;2.40;29.80;;;;;;10442291;28;20203;-90
2022/03/11 19:36:22;;;;;;;62.27;30.77;;;2.30;29.10;;;;;;10441414;28;20216;-78
2022/03/11 19:41:47;;;;;;;50.30;24.80;;;2.20;29.50;;;;;;10441394;28;20234;-80
2022/03/11 19:47:10;;;;;;;39.93;20.00;;;2.20;29.40;;;;;;10441400;28;20218;-76
2022/03/11 19:52:33;;;;;;;42.73;20.60;;;2.10;29.40;;;;;;10440793;28;20197;-90
2022/03/11 19:57:55;;;;;;;40.10;19.63;;;2.10;30.20;;;;;;10408087;28;20271;-75
2022/03/11 20:03:20;;;;;;;39.50;18.90;;;1.90;28.60;;;;;;10437847;28;20208;-89
2022/03/11 20:08:42;;;;;;;47.33;19.70;;;1.90;28.80;;;;;;10440621;28;20243;-76
2022/03/11 20:14:07;;;;;;;39.00;17.80;;;1.90;28.70;;;;;;10440633;28;20229;-78
2022/03/11 20:19:31;;;;;;;38.87;17.00;;;1.70;28.50;;;;;;10439915;28;20206;-80
2022/03/11 20:24:53;;;;;;;40.57;19.27;;;1.70;28.60;;;;;;10440151;28;20219;-88
2022/03/11 20:30:16;;;;;;;54.43;24.07;;;1.70;29.10;;;;;;10440555;28;20246;-87
2022/03/11 20:35:39;;;;;;;59.90;24.27;;;1.60;28.90;;;;;;10440513;28;20276;-87
2022/03/11 20:41:04;;;;;;;56.87;20.53;;;1.60;29.00;;;;;;10425474;28;20292;-75
2022/03/11 20:46:28;;;;;;;33.63;13.13;;;1.50;29.20;;;;;;10439770;28;20233;-75
2022/03/11 20:51:50;;;;;;;26.50;12.10;;;1.40;29.40;;;;;;10437752;28;20604;-74
2022/03/11 20:57:13;;;;;;;27.73;12.63;;;1.40;30.00;;;;;;10439925;28;20395;-76
2022/03/11 21:02:35;;;;;;;30.40;12.53;;;1.20;30.70;;;;;;10406428;28;20205;-75
2022/03/11 21:07:58;;;;;;;23.10;11.70;;;1.10;31.80;;;;;;10438997;28;20296;-74
2022/03/11 21:13:20;;;;;;;23.30;12.93;;;1.10;32.50;;;;;;10429252;28;20270;-88
2022/03/11 21:18:44;;;;;;;33.40;14.07;;;1.10;34.60;;;;;;10416686;28;20206;-75
2022/03/11 21:24:06;;;;;;;31.40;14.60;;;1.00;36.00;;;;;;10409175;28;20204;-76
2022/03/11 21:29:29;;;;;;;43.77;17.87;;;1.00;36.80;;;;;;10437646;28;20226;-86
2022/03/11 21:34:51;;;;;;;46.50;18.90;;;0.90;37.70;;;;;;10450639;28;20206;-75
2022/03/11 21:40:16;;;;;;;65.73;23.33;;;1.00;37.40;;;;;;10455116;28;20254;-83
2022/03/11 21:45:38;;;;;;;91.20;30.57;;;1.00;36.50;;;;;;10438272;28;20248;-76
2022/03/11 21:51:01;;;;;;;64.87;24.50;;;0.80;37.00;;;;;;10438074;28;20201;-74
2022/03/11 21:56:24;;;;;;;51.53;19.87;;;0.80;37.50;;;;;;10438846;28;20239;-88
2022/03/11 22:01:46;;;;;;;47.37;17.00;;;0.90;36.90;;;;;;10438138;28;20230;-75
2022/03/11 22:07:09;;;;;;;40.60;18.63;;;0.90;37.30;;;;;;10437830;28;20222;-76
2022/03/11 22:12:32;;;;;;;61.40;25.47;;;0.80;36.20;;;;;;10423303;28;20204;-79
2022/03/11 22:17:55;;;;;;;55.37;21.97;;;0.80;37.00;;;;;;10436987;28;20269;-90
2022/03/11 22:23:18;;;;;;;48.03;20.43;;;0.70;37.20;;;;;;10439905;28;20197;-83
2022/03/11 22:28:40;;;;;;;38.93;17.23;;;0.70;38.20;;;;;;10423380;28;20300;-80
2022/03/11 22:34:04;;;;;;;33.80;16.77;;;0.60;38.00;;;;;;10436290;28;20233;-76
2022/03/11 22:39:26;;;;;;;28.83;15.77;;;0.60;38.90;;;;;;10436187;28;20203;-79
2022/03/11 22:44:48;;;;;;;30.93;15.23;;;0.60;39.00;;;;;;10443871;28;20224;-83
2022/03/11 22:50:29;;;;;;;30.37;13.53;;;0.40;39.30;;;;;;10447522;28;20249;-79
2022/03/11 22:55:53;;;;;;;28.73;13.00;;;0.50;41.40;;;;;;10465606;28;20216;-79
2022/03/11 23:01:15;;;;;;;27.23;14.03;;;0.40;42.20;;;;;;10460762;28;20542;-83
2022/03/11 23:12:21;;;;;;;26.73;14.27;;;0.40;43.00;;;;;;10443183;28;20203;-77
2022/03/11 23:17:45;;;;;;;25.60;13.90;;;0.30;44.40;;;;;;10402137;28;20453;-91
2022/03/11 23:23:08;;;;;;;33.30;14.60;;;0.30;46.10;;;;;;10401250;28;20197;-88
2022/03/11 23:28:30;;;;;;;28.00;14.73;;;0.20;49.70;;;;;;10401629;28;20674;-79
2022/03/11 23:33:53;;;;;;;28.17;14.23;;;0.10;50.10;;;;;;10445665;28;20194;-90
2022/03/11 23:39:17;;;;;;;27.03;14.33;;;0.10;52.40;;;;;;10441855;28;20222;-82
2022/03/11 23:44:40;;;;;;;35.27;14.83;;;0.10;54.80;;;;;;10427453;28;20197;-76
2022/03/11 23:50:03;;;;;;;30.50;14.63;;;0.10;53.30;;;;;;10441868;28;20206;-81
2022/03/11 23:55:25;;;;;;;34.13;14.93;;;0.10;51.20;;;;;;10440852;28;20208;-86
